LiveATC.Net - Listen to live air traffic control over the Internet!


ICAO: KHUA  IATA: HUA   Airport: Redstone Army Airfield
City: Huntsville   State/Province: Alabama
Country: United States   Continent: North America
KHUA METAR Weather: KHUA 200958Z AUTO 13003KT 9SM CLR 22/21 A3009 RMK AO2 SLP183 T02160208
KHUA Flight Activity (FlightAware)
KHUA Airport Info   (iFlightPlanner)
KHUA VFR Sectional Chart   (iFlightPlanner) 
KHUA IFR Low Chart   (iFlightPlanner) 

KHUA Tower
Feed Status: DOWN
Last heard on: 2019-08-16 03:06:06 (4 days 7 hours 48 minutes ago)
KHUA Tower Audio Archives
FacilityFrequency
Redstone Tower126.950

NOTICE

Unauthorized use prohibited. See LiveATC.net Terms of Service


Airport/ARTCC Code
Frequency Search
(e.g., 124.400, 128.75)
Site-wide search
 


Browse LiveATC Feeds
Top 50 LiveATC Feeds
LiveATC Feed Map
Bad Weather Areas

LiveATC FAQ
Offer LiveATC feed
Contact LiveATC.net
Press Inquiries

LiveATC on iPhone
LiveATC on Android

Windows Phone
Windows 8/10

LiveATC Mobile
(Mobile browser)

ATC Audio Archives
Interesting Recordings

LiveATC Forums


Home Page
About LiveATC.net
Make a Donation
Terms of Use
Privacy Policy

Canadian Air Freqs

AIRMETs/SIGMETs

FAA Airport Status
Nat'l Airspace Status
Arrival Demand Charts


Server Software By:
Icecast.org
Liquidsoap